Semmes, Alabama
Current Conditions -  °F | °C
As of 3:56 PM on Monday 20 Oct 2014 (Local Time) from KMOB Reporting Station
Scattered Clouds Scattered Clouds  
Wind Chill: 77°   Ceiling: Unl
Heat Index: 78°   Visibility: 10mi
Dew Point: 49°   Wind: 7mph
Humidity: 37%   Direction: 320°NW
Pressure: 30"   Gusts: NA
Location:  30.78°N, 88.26°W
Report Text: KMOB 202056Z 32006KT 10SM FEW020 FEW150 SCT200 25/09 A3000 RMK AO2 SLP157 T02500094 56015
Loading
Personal Weather Stations






























Interactive Weather Map
Tropical Storm Tracking
New forecast layout! Learn more

10-Day Weather Forecast

Advertisements
Track Severe Weather on mobile